createdAt,value
2022-12-17T00:02:37.554Z,-5.43
2022-12-17T00:05:23.095Z,-5.51
2022-12-17T00:08:15.403Z,-5.59
2022-12-17T00:11:01.115Z,-5.70
2022-12-17T00:13:46.209Z,-5.77
2022-12-17T00:16:31.482Z,-5.82
2022-12-17T00:19:17.004Z,-5.94
2022-12-17T00:22:02.274Z,-5.89
2022-12-17T00:24:47.532Z,-5.81
2022-12-17T00:27:32.748Z,-6.01
2022-12-17T00:30:17.855Z,-6.05
2022-12-17T00:33:03.269Z,-6.07
2022-12-17T00:35:48.409Z,-6.06
2022-12-17T00:38:35.986Z,-6.03
2022-12-17T00:41:21.104Z,-5.95
2022-12-17T00:44:06.665Z,-5.92
2022-12-17T00:47:00.131Z,-5.79
2022-12-17T00:49:45.553Z,-5.92
2022-12-17T00:52:30.599Z,-5.83
2022-12-17T00:55:17.677Z,-5.81
2022-12-17T00:58:02.660Z,-5.93
2022-12-17T01:01:04.309Z,-5.95
2022-12-17T01:03:49.624Z,-6.08
2022-12-17T01:06:35.036Z,-6.14
2022-12-17T01:09:20.039Z,-6.21
2022-12-17T01:12:05.526Z,-6.30
2022-12-17T01:14:50.601Z,-6.40
2022-12-17T01:17:35.983Z,-6.48
2022-12-17T01:20:21.015Z,-6.59
2022-12-17T01:23:06.307Z,-6.64
2022-12-17T01:28:44.820Z,-6.76
2022-12-17T01:31:34.611Z,-6.84
2022-12-17T01:34:20.327Z,-6.86
2022-12-17T01:37:05.618Z,-6.97
2022-12-17T01:39:50.575Z,-6.99
2022-12-17T01:42:35.331Z,-7.01
2022-12-17T01:45:21.568Z,-7.03
2022-12-17T01:48:31.969Z,-7.01
2022-12-17T01:51:17.299Z,-7.11
2022-12-17T01:54:07.762Z,-7.08
2022-12-17T01:56:55.739Z,-7.06
2022-12-17T01:59:47.696Z,-7.12
2022-12-17T02:02:33.180Z,-7.03
2022-12-17T02:05:18.635Z,-6.99
2022-12-17T02:08:28.576Z,-7.11
2022-12-17T02:11:27.366Z,-7.12
2022-12-17T02:14:34.486Z,-7.12
2022-12-17T02:17:25.657Z,-7.23
2022-12-17T02:20:22.957Z,-7.24
2022-12-17T02:23:39.407Z,-7.40
2022-12-17T02:26:56.533Z,-7.43
2022-12-17T02:29:54.230Z,-7.50
2022-12-17T02:32:42.932Z,-7.46
2022-12-17T02:35:42.409Z,-7.45
2022-12-17T02:38:36.743Z,-7.39
2022-12-17T02:41:24.459Z,-7.48
2022-12-17T02:44:13.122Z,-7.53
2022-12-17T02:47:02.360Z,-7.51
2022-12-17T02:49:47.122Z,-7.60
2022-12-17T02:52:36.869Z,-7.72
2022-12-17T02:55:24.041Z,-7.71
2022-12-17T02:58:08.895Z,-7.75
2022-12-17T03:00:54.082Z,-7.81
2022-12-17T03:03:39.332Z,-7.87
2022-12-17T03:06:24.962Z,-8.06
2022-12-17T03:09:09.737Z,-8.08
2022-12-17T03:11:54.540Z,-8.03
2022-12-17T03:14:39.211Z,-8.22
2022-12-17T03:17:23.986Z,-8.32
2022-12-17T03:20:09.368Z,-8.43
2022-12-17T03:22:54.251Z,-8.56
2022-12-17T03:25:39.270Z,-8.68
2022-12-17T03:28:25.109Z,-8.54
2022-12-17T03:31:10.324Z,-8.60
2022-12-17T03:34:15.307Z,-8.70
2022-12-17T03:37:00.497Z,-8.68
2022-12-17T03:39:45.482Z,-8.69
2022-12-17T03:42:30.210Z,-8.78
2022-12-17T03:45:14.971Z,-8.75
2022-12-17T03:47:59.688Z,-8.71
2022-12-17T03:50:44.418Z,-8.73
2022-12-17T03:53:29.549Z,-8.84
2022-12-17T03:56:14.366Z,-8.73
2022-12-17T03:58:59.436Z,-8.52
2022-12-17T04:01:44.310Z,-8.26
2022-12-17T04:04:29.299Z,-8.31
2022-12-17T04:07:14.459Z,-8.52
2022-12-17T04:09:59.205Z,-8.76
2022-12-17T04:12:44.227Z,-8.91
2022-12-17T04:15:29.603Z,-9.01
2022-12-17T04:18:14.238Z,-9.10
2022-12-17T04:20:59.027Z,-9.13
2022-12-17T04:23:44.262Z,-9.12
2022-12-17T04:26:29.059Z,-9.19
2022-12-17T04:29:13.832Z,-9.25
2022-12-17T04:31:58.589Z,-9.32
2022-12-17T04:34:43.411Z,-9.33
2022-12-17T04:37:28.428Z,-9.38
2022-12-17T04:40:13.920Z,-9.32
2022-12-17T04:42:58.563Z,-9.22
2022-12-17T04:45:43.367Z,-8.93
2022-12-17T04:48:27.989Z,-8.71
2022-12-17T04:51:13.169Z,-8.72
2022-12-17T04:53:58.034Z,-8.73
2022-12-17T04:56:42.949Z,-8.63
2022-12-17T04:59:27.807Z,-8.95
2022-12-17T05:02:12.550Z,-9.09
2022-12-17T05:04:57.684Z,-9.13
2022-12-17T05:07:42.372Z,-9.14
2022-12-17T05:10:27.631Z,-9.17
2022-12-17T05:13:19.920Z,-9.22
2022-12-17T05:16:05.756Z,-9.21
2022-12-17T05:18:51.131Z,-9.21
2022-12-17T05:21:35.823Z,-9.25
2022-12-17T05:24:20.539Z,-9.04
2022-12-17T05:27:05.359Z,-9.09
2022-12-17T05:29:50.073Z,-9.21
2022-12-17T05:32:34.890Z,-9.37
2022-12-17T05:35:19.634Z,-9.38
2022-12-17T05:38:04.482Z,-9.38
2022-12-17T05:40:49.205Z,-9.44
2022-12-17T05:43:34.305Z,-9.46
2022-12-17T05:46:23.527Z,-9.46
2022-12-17T05:49:08.307Z,-9.43
2022-12-17T05:51:53.637Z,-9.42
2022-12-17T05:54:38.459Z,-9.23
2022-12-17T05:57:23.388Z,-9.15
2022-12-17T06:00:08.466Z,-9.07
2022-12-17T06:02:55.131Z,-9.08
2022-12-17T06:05:39.907Z,-9.07
2022-12-17T06:08:26.581Z,-9.01
2022-12-17T06:11:11.939Z,-9.18
2022-12-17T06:13:57.573Z,-9.22
2022-12-17T06:16:42.215Z,-9.35
2022-12-17T06:19:27.052Z,-9.38
2022-12-17T06:22:11.825Z,-9.52
2022-12-17T06:24:56.645Z,-9.64
2022-12-17T06:27:41.330Z,-9.76
2022-12-17T06:30:26.537Z,-9.71
2022-12-17T06:33:11.378Z,-9.64
2022-12-17T06:35:56.322Z,-9.65
2022-12-17T06:38:41.205Z,-9.68
2022-12-17T06:41:27.925Z,-9.84
2022-12-17T06:44:12.735Z,-9.86
2022-12-17T06:46:57.937Z,-9.80
2022-12-17T06:49:42.718Z,-9.85
2022-12-17T06:52:27.433Z,-9.88
2022-12-17T06:55:12.359Z,-9.93
2022-12-17T06:57:57.371Z,-9.93
2022-12-17T07:00:42.099Z,-10.02
2022-12-17T07:03:30.102Z,-10.00
2022-12-17T07:06:17.815Z,-10.05
2022-12-17T07:09:03.274Z,-9.95
2022-12-17T07:11:48.385Z,-9.88
2022-12-17T07:14:33.238Z,-9.92
2022-12-17T07:17:24.854Z,-9.93
2022-12-17T07:20:09.907Z,-10.04
2022-12-17T07:23:08.972Z,-10.14
2022-12-17T07:25:53.702Z,-10.13
2022-12-17T07:28:38.957Z,-10.13
2022-12-17T07:31:23.812Z,-10.09
2022-12-17T07:34:13.634Z,-10.12
2022-12-17T07:37:01.341Z,-9.97
2022-12-17T07:39:59.805Z,-9.91
2022-12-17T07:42:52.295Z,-9.92
2022-12-17T07:45:37.157Z,-9.93
2022-12-17T07:48:22.314Z,-9.85
2022-12-17T07:51:08.602Z,-9.64
2022-12-17T07:53:53.839Z,-9.46
2022-12-17T07:56:39.133Z,-9.36
2022-12-17T07:59:24.441Z,-9.36
2022-12-17T08:02:10.189Z,-9.36
2022-12-17T08:04:55.527Z,-9.34
2022-12-17T08:07:40.354Z,-9.23
2022-12-17T08:10:25.710Z,-9.18
2022-12-17T08:13:24.160Z,-9.20
2022-12-17T08:16:11.526Z,-9.12
2022-12-17T08:18:57.043Z,-9.23
2022-12-17T08:21:41.752Z,-9.33
2022-12-17T08:24:26.696Z,-9.28
2022-12-17T08:27:11.675Z,-9.27
2022-12-17T08:29:56.678Z,-9.26
2022-12-17T08:32:42.701Z,-9.30
2022-12-17T08:35:27.977Z,-9.28
2022-12-17T08:38:19.599Z,-9.28
2022-12-17T08:41:07.740Z,-9.30
2022-12-17T08:43:52.740Z,-9.02
2022-12-17T08:46:38.109Z,-8.87
2022-12-17T08:49:23.105Z,-8.57
2022-12-17T08:52:07.880Z,-7.88
2022-12-17T08:54:52.864Z,-7.37
2022-12-17T08:57:37.851Z,-7.24
2022-12-17T09:00:23.202Z,-7.09
2022-12-17T09:03:08.420Z,-6.87
2022-12-17T09:05:53.558Z,-6.61
2022-12-17T09:08:38.308Z,-6.83
2022-12-17T09:11:23.263Z,-6.65
2022-12-17T09:14:08.682Z,-6.49
2022-12-17T09:16:53.643Z,-6.17
2022-12-17T09:19:38.910Z,-6.02
2022-12-17T09:22:23.494Z,-5.77
2022-12-17T09:25:13.326Z,-5.75
2022-12-17T09:27:58.735Z,-5.39
2022-12-17T09:30:44.087Z,-3.63
2022-12-17T09:33:38.607Z,-3.18
2022-12-17T09:36:25.069Z,-4.01
2022-12-17T09:39:10.465Z,-2.56
2022-12-17T09:42:09.514Z,-3.12
2022-12-17T09:45:20.705Z,-4.11
2022-12-17T09:48:40.237Z,-4.60
2022-12-17T09:51:45.815Z,-4.82
2022-12-17T09:54:44.526Z,-4.24
2022-12-17T09:57:34.922Z,-4.33
2022-12-17T10:00:28.837Z,-4.76
2022-12-17T10:03:13.855Z,-4.93
2022-12-17T10:06:00.901Z,-4.72
2022-12-17T10:08:46.428Z,-5.03
2022-12-17T10:11:39.377Z,-5.23
2022-12-17T10:14:37.384Z,-5.43
2022-12-17T10:17:23.104Z,-5.65
2022-12-17T10:20:11.952Z,-5.47
2022-12-17T10:23:08.508Z,-5.51
2022-12-17T10:25:54.249Z,-5.60
2022-12-17T10:28:43.246Z,-5.69
2022-12-17T10:31:33.763Z,-5.75
2022-12-17T10:34:18.388Z,-5.80
2022-12-17T10:37:09.583Z,-5.84
2022-12-17T10:40:05.361Z,-5.74
2022-12-17T10:42:57.798Z,-5.43
2022-12-17T10:45:44.073Z,-5.33
2022-12-17T10:48:37.953Z,-5.12
2022-12-17T10:51:24.731Z,-4.85
2022-12-17T10:54:11.583Z,-4.86
2022-12-17T10:57:17.081Z,-5.19
2022-12-17T11:00:02.440Z,-5.16
2022-12-17T11:02:49.393Z,-5.08
2022-12-17T11:05:43.380Z,-4.84
2022-12-17T11:08:31.286Z,-4.84
2022-12-17T11:11:19.669Z,-4.76
2022-12-17T11:14:07.779Z,-4.38
2022-12-17T11:16:58.540Z,-4.03
2022-12-17T11:19:55.493Z,-4.27
2022-12-17T11:23:15.750Z,-4.30
2022-12-17T11:26:08.468Z,-3.95
2022-12-17T11:29:05.250Z,-4.08
2022-12-17T11:32:00.562Z,-4.23
2022-12-17T11:35:01.035Z,-4.32
2022-12-17T11:37:54.293Z,-4.08
2022-12-17T11:40:45.359Z,-3.94
2022-12-17T11:43:48.518Z,-3.91
2022-12-17T11:47:08.541Z,-3.87
2022-12-17T11:49:59.824Z,-4.05
2022-12-17T11:53:30.351Z,-3.95
2022-12-17T11:56:31.340Z,-3.80
2022-12-17T11:59:29.863Z,-3.74
2022-12-17T12:02:34.747Z,-3.84
2022-12-17T12:05:38.326Z,-3.58
2022-12-17T12:09:00.384Z,-3.58
2022-12-17T12:11:56.412Z,-3.55
2022-12-17T12:14:48.144Z,-3.46
2022-12-17T12:18:04.599Z,-3.42
2022-12-17T12:21:14.260Z,-3.32
2022-12-17T12:24:41.975Z,-3.06
2022-12-17T12:27:42.854Z,-2.97
2022-12-17T12:30:34.446Z,-2.96
2022-12-17T12:33:19.226Z,-2.83
2022-12-17T12:36:04.927Z,-3.10
2022-12-17T12:38:55.750Z,-3.22
2022-12-17T12:42:18.357Z,-3.24
2022-12-17T12:45:13.739Z,-3.20
2022-12-17T12:48:18.074Z,-3.36
2022-12-17T12:51:35.310Z,-3.19
2022-12-17T12:54:40.356Z,-3.22
2022-12-17T12:57:44.877Z,-3.36
2022-12-17T13:00:57.503Z,-3.27
2022-12-17T13:03:46.737Z,-3.14
2022-12-17T13:06:35.260Z,-2.76
2022-12-17T13:09:19.130Z,-2.64
2022-12-17T13:11:48.607Z,-2.66
2022-12-17T13:14:20.103Z,-2.69
2022-12-17T13:16:59.586Z,-2.73
2022-12-17T13:19:39.406Z,-2.90
2022-12-17T13:22:17.754Z,-2.91
2022-12-17T13:24:50.649Z,-2.96
2022-12-17T13:27:32.434Z,-3.04
2022-12-17T13:30:21.488Z,-3.14
2022-12-17T13:32:53.916Z,-3.06
2022-12-17T13:35:50.521Z,-2.93
2022-12-17T13:38:20.230Z,-2.69
2022-12-17T13:41:09.844Z,-2.54
2022-12-17T13:43:46.181Z,-2.80
2022-12-17T13:46:22.777Z,-3.04
2022-12-17T13:49:03.989Z,-3.17
2022-12-17T13:51:32.747Z,-3.20
2022-12-17T13:54:04.708Z,-3.10
2022-12-17T13:56:34.021Z,-3.05
2022-12-17T13:59:08.146Z,-3.09
2022-12-17T14:01:47.099Z,-3.08
2022-12-17T14:04:29.165Z,-3.07
2022-12-17T14:07:03.386Z,-3.05
2022-12-17T14:09:40.393Z,-3.06
2022-12-17T14:12:22.566Z,-3.07
2022-12-17T14:15:08.289Z,-3.07
2022-12-17T14:17:44.191Z,-3.07
2022-12-17T14:20:23.716Z,-3.00
2022-12-17T14:22:55.540Z,-3.05
2022-12-17T14:25:24.318Z,-2.98
2022-12-17T14:28:03.419Z,-2.91
2022-12-17T14:30:33.165Z,-2.94
2022-12-17T14:32:59.969Z,-3.13
2022-12-17T14:35:40.131Z,-3.21
2022-12-17T14:38:37.055Z,-3.24
2022-12-17T14:41:39.860Z,-3.36
2022-12-17T14:44:07.172Z,-3.36
2022-12-17T14:46:35.054Z,-3.37
2022-12-17T14:49:05.902Z,-3.40
2022-12-17T14:51:38.814Z,-3.45
2022-12-17T14:54:29.791Z,-3.46
2022-12-17T14:56:58.942Z,-3.40
2022-12-17T14:59:35.860Z,-3.51
2022-12-17T15:02:24.246Z,-3.56
2022-12-17T15:04:52.842Z,-3.66
2022-12-17T15:07:28.004Z,-3.71
2022-12-17T15:09:56.219Z,-3.69
2022-12-17T15:12:29.307Z,-3.78
2022-12-17T15:14:55.943Z,-3.78
2022-12-17T15:17:22.854Z,-3.79
2022-12-17T15:19:55.754Z,-3.87
2022-12-17T15:22:23.448Z,-3.78
2022-12-17T15:24:49.962Z,-3.75
2022-12-17T15:27:17.773Z,-3.77
2022-12-17T15:29:44.573Z,-3.73
2022-12-17T15:32:19.784Z,-3.77
2022-12-17T15:34:47.379Z,-3.88
2022-12-17T15:37:15.299Z,-3.99
2022-12-17T15:39:41.828Z,-4.05
2022-12-17T15:42:28.514Z,-4.00
2022-12-17T15:44:54.993Z,-4.14
2022-12-17T15:47:21.545Z,-4.21
2022-12-17T15:49:49.701Z,-4.25
2022-12-17T15:52:17.825Z,-4.26
2022-12-17T15:54:44.785Z,-4.30
2022-12-17T15:57:16.821Z,-4.30
2022-12-17T15:59:45.335Z,-4.39
2022-12-17T16:02:12.197Z,-4.37
2022-12-17T16:04:38.878Z,-4.37
2022-12-17T16:07:05.834Z,-4.39
2022-12-17T16:09:35.146Z,-4.39
2022-12-17T16:12:01.796Z,-4.50
2022-12-17T16:14:28.459Z,-4.60
2022-12-17T16:16:54.982Z,-4.70
2022-12-17T16:19:25.242Z,-4.67
2022-12-17T16:21:54.734Z,-4.77
2022-12-17T16:24:21.260Z,-4.85
2022-12-17T16:26:47.972Z,-5.05
2022-12-17T16:29:14.680Z,-5.04
2022-12-17T16:31:41.580Z,-4.97
2022-12-17T16:34:12.860Z,-4.90
2022-12-17T16:36:39.646Z,-5.09
2022-12-17T16:39:06.412Z,-5.20
2022-12-17T16:41:33.514Z,-5.16
2022-12-17T16:44:01.137Z,-5.21
2022-12-17T16:46:33.283Z,-5.23
2022-12-17T16:49:11.990Z,-5.35
2022-12-17T16:51:39.096Z,-5.45
2022-12-17T16:54:13.388Z,-5.58
2022-12-17T16:56:47.649Z,-5.67
2022-12-17T16:59:15.738Z,-5.66
2022-12-17T17:01:44.751Z,-5.61
2022-12-17T17:04:13.105Z,-5.73
2022-12-17T17:06:45.575Z,-5.75
2022-12-17T17:09:13.866Z,-5.89
2022-12-17T17:11:40.714Z,-5.98
2022-12-17T17:14:10.478Z,-6.04
2022-12-17T17:16:37.527Z,-6.04
2022-12-17T17:19:05.366Z,-6.08
2022-12-17T17:21:40.556Z,-6.16
2022-12-17T17:24:21.359Z,-6.24
2022-12-17T17:26:49.822Z,-6.38
2022-12-17T17:29:16.587Z,-6.38
2022-12-17T17:34:31.132Z,-6.57
2022-12-17T17:36:57.702Z,-6.58
2022-12-17T17:39:24.638Z,-6.57
2022-12-17T17:41:51.900Z,-6.54
2022-12-17T17:44:18.476Z,-6.62
2022-12-17T17:46:51.215Z,-6.67
2022-12-17T17:49:17.804Z,-6.79
2022-12-17T17:54:31.404Z,-6.93
2022-12-17T17:56:58.135Z,-6.88
2022-12-17T17:59:32.589Z,-6.91
2022-12-17T18:02:00.922Z,-6.82
2022-12-17T18:04:28.993Z,-6.90
2022-12-17T18:07:24.281Z,-7.02
2022-12-17T18:09:42.309Z,-7.01
2022-12-17T18:12:27.481Z,-7.13
2022-12-17T18:17:40.786Z,-7.25
2022-12-17T18:20:09.640Z,-7.09
2022-12-17T18:22:36.462Z,-7.01
2022-12-17T18:25:03.233Z,-6.93
2022-12-17T18:27:29.905Z,-6.81
2022-12-17T18:29:56.443Z,-6.71
2022-12-17T18:32:22.969Z,-6.87
2022-12-17T18:34:49.603Z,-6.93
2022-12-17T18:37:16.278Z,-7.11
2022-12-17T18:39:42.791Z,-7.24
2022-12-17T18:42:44.024Z,-7.38
2022-12-17T18:45:13.822Z,-7.42
2022-12-17T18:47:42.514Z,-7.39
2022-12-17T18:50:09.665Z,-7.39
2022-12-17T18:52:36.275Z,-7.32
2022-12-17T18:55:02.755Z,-7.29
2022-12-17T18:57:29.433Z,-7.35
2022-12-17T18:59:56.832Z,-7.48
2022-12-17T19:02:23.361Z,-7.48
2022-12-17T19:04:50.138Z,-7.51
2022-12-17T19:07:16.675Z,-7.56
2022-12-17T19:09:43.248Z,-7.63
2022-12-17T19:12:10.024Z,-7.59
2022-12-17T19:14:37.138Z,-7.63
2022-12-17T19:17:05.111Z,-7.64
2022-12-17T19:19:32.440Z,-7.69
2022-12-17T19:22:00.386Z,-7.77
2022-12-17T19:24:27.164Z,-7.99
2022-12-17T19:26:54.235Z,-8.05
2022-12-17T19:29:21.381Z,-8.10
2022-12-17T19:31:48.754Z,-8.03
2022-12-17T19:34:18.940Z,-8.00
2022-12-17T19:36:47.083Z,-8.01
2022-12-17T19:39:17.153Z,-8.07
2022-12-17T19:41:43.946Z,-8.08
2022-12-17T19:44:15.700Z,-8.19
2022-12-17T19:46:42.590Z,-8.23
2022-12-17T19:49:14.821Z,-8.31
2022-12-17T19:51:45.023Z,-8.31
2022-12-17T19:54:14.703Z,-8.28
2022-12-17T19:56:45.207Z,-8.26
2022-12-17T19:59:13.808Z,-8.14
2022-12-17T20:01:45.527Z,-8.14
2022-12-17T20:04:13.664Z,-8.18
2022-12-17T20:06:40.306Z,-8.15
2022-12-17T20:09:07.556Z,-8.16
2022-12-17T20:11:34.758Z,-8.20
2022-12-17T20:14:12.368Z,-8.14
2022-12-17T20:16:44.543Z,-8.15
2022-12-17T20:19:15.852Z,-8.21
2022-12-17T20:21:42.591Z,-8.21
2022-12-17T20:24:11.245Z,-8.17
2022-12-17T20:26:37.843Z,-8.34
2022-12-17T20:29:05.735Z,-8.39
2022-12-17T20:31:32.918Z,-8.51
2022-12-17T20:34:04.440Z,-8.55
2022-12-17T20:36:31.039Z,-8.58
2022-12-17T20:38:57.932Z,-8.62
2022-12-17T20:41:26.838Z,-8.62
2022-12-17T20:43:54.487Z,-8.65
2022-12-17T20:46:22.817Z,-8.62
2022-12-17T20:48:49.530Z,-8.63
2022-12-17T20:51:18.702Z,-8.60
2022-12-17T20:53:46.055Z,-8.60
2022-12-17T20:56:17.441Z,-8.67
2022-12-17T20:58:45.124Z,-8.75
2022-12-17T21:01:20.765Z,-8.86
2022-12-17T21:03:49.484Z,-8.74
2022-12-17T21:06:20.202Z,-8.61
2022-12-17T21:08:50.276Z,-8.53
2022-12-17T21:11:21.672Z,-8.53
2022-12-17T21:13:48.297Z,-8.62
2022-12-17T21:16:25.840Z,-8.71
2022-12-17T21:18:53.253Z,-8.82
2022-12-17T21:21:22.855Z,-8.72
2022-12-17T21:24:09.664Z,-8.84
2022-12-17T21:26:38.885Z,-8.99
2022-12-17T21:29:07.236Z,-9.12
2022-12-17T21:31:37.993Z,-9.25
2022-12-17T21:34:06.278Z,-9.39
2022-12-17T21:36:34.482Z,-9.51
2022-12-17T21:39:02.410Z,-9.47
2022-12-17T21:41:38.348Z,-9.56
2022-12-17T21:44:07.940Z,-9.51
2022-12-17T21:46:35.434Z,-9.43
2022-12-17T21:49:02.976Z,-9.35
2022-12-17T21:51:30.862Z,-9.36
2022-12-17T21:54:00.489Z,-9.28
2022-12-17T21:56:27.551Z,-9.41
2022-12-17T21:58:59.079Z,-9.42
2022-12-17T22:01:28.815Z,-9.51
2022-12-17T22:03:58.716Z,-9.50
2022-12-17T22:06:31.931Z,-9.37
2022-12-17T22:09:07.601Z,-9.33
2022-12-17T22:11:43.470Z,-9.35
2022-12-17T22:14:18.930Z,-9.42
2022-12-17T22:16:49.453Z,-9.55
2022-12-17T22:19:22.127Z,-9.61
2022-12-17T22:21:50.651Z,-9.68
2022-12-17T22:24:19.851Z,-9.49
2022-12-17T22:26:47.296Z,-9.28
2022-12-17T22:29:34.506Z,-9.18
2022-12-17T22:32:19.823Z,-9.09
2022-12-17T22:35:56.575Z,-9.18
2022-12-17T22:39:05.284Z,-9.52
2022-12-17T22:44:43.046Z,-9.50
2022-12-17T22:44:49.154Z,-9.53
2022-12-17T22:46:17.259Z,-9.70
2022-12-17T22:48:44.191Z,-9.77
2022-12-17T22:51:13.345Z,-9.93
2022-12-17T22:53:47.990Z,-9.99
2022-12-17T22:56:31.326Z,-10.03
2022-12-17T22:59:02.526Z,-9.92
2022-12-17T23:01:29.084Z,-9.82
2022-12-17T23:03:56.762Z,-9.78
2022-12-17T23:06:25.434Z,-9.81
2022-12-17T23:08:52.455Z,-9.86
2022-12-17T23:11:25.201Z,-9.92
2022-12-17T23:13:52.795Z,-10.00
2022-12-17T23:16:19.381Z,-10.05
2022-12-17T23:18:49.821Z,-10.13
2022-12-17T23:21:30.875Z,-10.13
2022-12-17T23:23:58.222Z,-10.04
2022-12-17T23:26:35.802Z,-9.96
2022-12-17T23:29:08.704Z,-9.98
2022-12-17T23:31:38.088Z,-9.85
2022-12-17T23:34:05.437Z,-9.95
2022-12-17T23:36:32.059Z,-10.13
2022-12-17T23:39:01.112Z,-10.37
2022-12-17T23:41:30.142Z,-10.67
2022-12-17T23:43:58.002Z,-10.80
2022-12-17T23:46:26.804Z,-10.82
2022-12-17T23:48:54.270Z,-10.93
2022-12-17T23:51:22.273Z,-10.93
2022-12-17T23:53:49.224Z,-10.80
2022-12-17T23:56:17.042Z,-10.86
2022-12-17T23:58:44.902Z,-11.06
